KDEC/DEC METAR and TAF weather

Enter ICAO airport designator
Station Type Date Time Source
KDEC METAR 2022/01/26 06:54 UTC NOAA

KDEC 260654Z AUTO 31009KT 10SM CLR M14/M21 A3048 RMK AO2 SLP335 T11441206


Station Type Date Time Source
KDEC Decoded METAR 2022/01/26 06:54 UTC NOAA

DECATUR AIRPORT, IL, United States (KDEC) 39-50N 88-52W 207M
Jan 26, 2022 - 01:54 AM EST / 2022.01.26 0654 UTC
Wind: from the NW (310 degrees) at 10 MPH (9 KT):0
Visibility: 10 mile(s):0
Sky conditions: clear
Temperature: 6.1 F (-14.4 C)
Windchill: -7 F (-22 C):2
Dew Point: -5.1 F (-20.6 C)
Relative Humidity: 59%
Pressure (altimeter): 30.48 in. Hg (1032 hPa)
ob: KDEC 260654Z AUTO 31009KT 10SM CLR M14/M21 A3048 RMK AO2 SLP335 T11441206
cycle: 7

Station Type Date Time Source
KDEC TAF 2022/01/26 06:22 UTC NOAA

TAF KDEC 260520Z 2606/2706 32007KT P6SM SKC
FM262100 19008KT P6SM SKC

Example: see airport list